Time;durP1;ratioP1;P1;durP2;ratioP2;P2;SDS_P1;SDS_P2;PMS_P1;PMS_P2;Temp;Humidity;BMP_temperature;BMP_pressure;BME280_temperature;BME280_humidity;BME280_pressure;Samples;Min_cycle;Max_cycle;Signal;HPM_P1;HPM_P2
2021/01/18 00:02:01;;;;;;;15.20;11.20;;;2.70;99.90;;;;;;5092473;28;20767;-42
2021/01/18 00:04:28;;;;;;;7.43;6.73;;;2.80;99.90;;;;;;5092587;28;20207;-44
2021/01/18 00:06:55;;;;;;;6.40;5.80;;;2.80;99.90;;;;;;5092419;28;20222;-44
2021/01/18 00:09:22;;;;;;;8.57;7.53;;;2.80;99.90;;;;;;5092357;28;20301;-43
2021/01/18 00:11:49;;;;;;;8.30;7.50;;;2.80;99.90;;;;;;5092158;28;20309;-45
2021/01/18 00:14:16;;;;;;;7.23;5.57;;;2.80;99.90;;;;;;5092319;28;20242;-44
2021/01/18 00:16:44;;;;;;;7.20;6.50;;;2.80;99.90;;;;;;5092201;28;20298;-44
2021/01/18 00:19:12;;;;;;;7.05;6.35;;;2.80;99.90;;;;;;5092110;28;20612;-45
2021/01/18 00:21:44;;;;;;;7.13;6.25;;;2.80;99.90;;;;;;5092221;28;20302;-45
2021/01/18 00:24:12;;;;;;;6.73;6.13;;;2.80;99.90;;;;;;5092394;28;20662;-48
2021/01/18 00:26:39;;;;;;;7.53;6.83;;;2.80;99.90;;;;;;5091279;28;20633;-45
2021/01/18 00:29:06;;;;;;;7.07;6.47;;;2.80;99.90;;;;;;5092006;28;20639;-46
2021/01/18 00:31:33;;;;;;;6.10;5.50;;;2.80;99.90;;;;;;5092406;28;20342;-42
2021/01/18 00:34:00;;;;;;;6.93;6.23;;;2.80;99.90;;;;;;5092029;28;20221;-42
2021/01/18 00:36:28;;;;;;;7.50;6.80;;;2.80;99.90;;;;;;5092144;28;20635;-43
2021/01/18 00:38:56;;;;;;;7.03;6.43;;;2.80;99.90;;;;;;5092103;28;20659;-43
2021/01/18 00:41:23;;;;;;;6.20;5.70;;;2.80;99.90;;;;;;5091884;28;20209;-42
2021/01/18 00:43:50;;;;;;;7.17;6.50;;;2.80;99.90;;;;;;5091932;28;20702;-42
2021/01/18 00:46:18;;;;;;;6.53;6.00;;;2.80;99.90;;;;;;5092180;28;20302;-42
2021/01/18 00:48:46;;;;;;;6.73;6.13;;;2.80;99.90;;;;;;5091980;28;20726;-42
2021/01/18 00:51:13;;;;;;;7.57;6.63;;;2.70;99.90;;;;;;5092006;28;20249;-43
2021/01/18 00:53:41;;;;;;;6.95;6.25;;;2.70;99.90;;;;;;5091918;28;20693;-43
2021/01/18 00:56:08;;;;;;;6.50;5.95;;;2.80;99.90;;;;;;5091842;28;20207;-43
2021/01/18 00:58:35;;;;;;;7.55;6.85;;;2.80;99.90;;;;;;5092040;28;20226;-46
2021/01/18 01:01:02;;;;;;;7.23;6.53;;;2.80;99.90;;;;;;5091776;28;20298;-41
2021/01/18 01:03:29;;;;;;;7.10;6.45;;;2.90;99.90;;;;;;5091980;28;20207;-43
2021/01/18 01:05:56;;;;;;;6.15;5.63;;;2.90;99.90;;;;;;5091956;28;20297;-42
2021/01/18 01:08:24;;;;;;;6.95;5.93;;;3.00;99.90;;;;;;5091807;28;20202;-43
2021/01/18 01:10:51;;;;;;;6.55;5.95;;;3.00;99.90;;;;;;5091875;28;20297;-45
2021/01/18 01:13:18;;;;;;;6.65;5.72;;;3.00;99.90;;;;;;5091817;28;20246;-42
2021/01/18 01:15:46;;;;;;;6.83;6.23;;;3.10;99.90;;;;;;5091630;28;20211;-43
2021/01/18 01:18:13;;;;;;;6.83;6.07;;;3.10;99.90;;;;;;5091545;28;20258;-42
2021/01/18 01:20:40;;;;;;;7.72;7.03;;;3.10;99.90;;;;;;5091693;28;20207;-43
2021/01/18 01:23:07;;;;;;;6.95;6.28;;;3.10;99.90;;;;;;5091627;28;20835;-43
2021/01/18 01:25:34;;;;;;;6.18;5.57;;;3.10;99.90;;;;;;5091448;28;20214;-48
2021/01/18 01:28:02;;;;;;;7.03;6.32;;;3.10;99.90;;;;;;5091754;28;20203;-49
2021/01/18 01:30:30;;;;;;;7.38;6.68;;;3.10;99.90;;;;;;5091413;28;20253;-43
2021/01/18 01:32:57;;;;;;;7.45;6.75;;;3.10;99.90;;;;;;5091343;28;20233;-45
2021/01/18 01:35:27;;;;;;;6.57;5.97;;;3.10;99.90;;;;;;5091585;28;20209;-44
2021/01/18 01:37:56;;;;;;;7.13;6.47;;;3.10;99.90;;;;;;5093102;28;20684;-45
2021/01/18 01:40:23;;;;;;;5.87;5.37;;;3.00;99.90;;;;;;5095595;28;20206;-44
2021/01/18 01:42:50;;;;;;;6.90;6.30;;;3.00;99.90;;;;;;5095221;28;20211;-47
2021/01/18 01:45:19;;;;;;;7.07;6.37;;;3.00;99.90;;;;;;5095033;28;20206;-44
2021/01/18 01:47:49;;;;;;;6.37;5.77;;;3.00;99.90;;;;;;5094989;28;20203;-48
2021/01/18 01:50:19;;;;;;;6.05;4.93;;;3.00;99.90;;;;;;5095359;28;20207;-50
2021/01/18 01:52:49;;;;;;;6.30;5.10;;;3.00;99.90;;;;;;5095252;28;20297;-45
2021/01/18 01:55:24;;;;;;;6.88;6.00;;;2.90;99.90;;;;;;5095180;28;20634;-44
2021/01/18 01:57:54;;;;;;;6.07;5.53;;;3.00;99.90;;;;;;5094942;28;20222;-44
2021/01/18 02:00:23;;;;;;;6.63;5.80;;;3.00;99.90;;;;;;5095115;28;20613;-43
2021/01/18 02:02:50;;;;;;;6.35;5.43;;;3.00;99.90;;;;;;5094757;28;20289;-44
2021/01/18 02:05:18;;;;;;;5.83;5.20;;;3.00;99.90;;;;;;5094613;28;20247;-43
2021/01/18 02:07:45;;;;;;;6.63;5.68;;;3.00;99.90;;;;;;5094970;28;20206;-43
2021/01/18 02:10:13;;;;;;;5.22;4.68;;;3.00;99.90;;;;;;5094658;28;20217;-44
2021/01/18 02:12:40;;;;;;;5.15;4.65;;;3.00;99.90;;;;;;5094493;28;20544;-42
2021/01/18 02:15:20;;;;;;;5.23;4.83;;;2.90;99.90;;;;;;5094749;28;20241;-43
2021/01/18 02:18:16;;;;;;;6.33;5.27;;;2.90;99.90;;;;;;5094717;28;20230;-43
2021/01/18 02:21:30;;;;;;;5.60;4.93;;;2.80;99.90;;;;;;5094563;28;20635;-42
2021/01/18 02:24:52;;;;;;;6.03;5.43;;;2.90;99.90;;;;;;5091129;28;20293;-43
2021/01/18 02:28:03;;;;;;;7.35;5.00;;;2.80;99.90;;;;;;5051774;28;20201;-45
2021/01/18 02:31:02;;;;;;;5.18;4.72;;;2.80;99.90;;;;;;5051849;28;20317;-43
2021/01/18 02:34:07;;;;;;;6.75;6.05;;;2.80;99.90;;;;;;5094284;28;20210;-44
2021/01/18 02:36:41;;;;;;;6.13;5.37;;;2.80;99.90;;;;;;5094442;28;20297;-42
2021/01/18 02:39:13;;;;;;;5.60;5.10;;;2.80;99.90;;;;;;5094340;28;20312;-44
2021/01/18 02:41:46;;;;;;;5.50;5.00;;;2.80;99.90;;;;;;5094005;28;20289;-43
2021/01/18 02:44:17;;;;;;;7.40;5.15;;;2.80;99.90;;;;;;5094280;28;20207;-45
2021/01/18 02:46:48;;;;;;;5.57;5.07;;;2.80;99.90;;;;;;5093853;28;20279;-42
2021/01/18 02:49:17;;;;;;;5.47;4.97;;;2.80;99.90;;;;;;5092807;28;20199;-43
2021/01/18 02:51:48;;;;;;;6.03;5.43;;;2.80;99.90;;;;;;5093858;28;20256;-44
2021/01/18 02:54:15;;;;;;;6.07;5.40;;;2.80;99.90;;;;;;5093699;28;20246;-45
2021/01/18 02:56:50;;;;;;;5.55;5.00;;;2.80;99.90;;;;;;5093321;28;20207;-42
2021/01/18 02:59:17;;;;;;;6.68;5.93;;;2.80;99.90;;;;;;5093637;28;20308;-46
2021/01/18 03:01:57;;;;;;;6.78;5.47;;;2.80;99.90;;;;;;5093594;28;20206;-44
2021/01/18 03:04:40;;;;;;;7.63;5.25;;;2.80;99.90;;;;;;5093623;28;20220;-44
2021/01/18 03:07:17;;;;;;;6.87;5.20;;;2.80;99.90;;;;;;5093506;28;20583;-43
2021/01/18 03:09:50;;;;;;;5.87;5.27;;;2.80;99.90;;;;;;5093249;28;20214;-43
2021/01/18 03:12:23;;;;;;;5.85;4.93;;;2.70;99.90;;;;;;5093168;28;20325;-43
2021/01/18 03:14:54;;;;;;;6.32;5.47;;;2.70;99.90;;;;;;5093390;28;20666;-44
2021/01/18 03:17:24;;;;;;;4.90;4.40;;;2.70;99.90;;;;;;5093130;28;20206;-42
2021/01/18 03:19:53;;;;;;;6.63;5.55;;;2.70;99.90;;;;;;5093512;28;20217;-42
2021/01/18 03:22:27;;;;;;;5.50;4.95;;;2.60;99.90;;;;;;5093545;28;20658;-42
2021/01/18 03:25:00;;;;;;;6.97;5.50;;;2.70;99.90;;;;;;5093172;28;20233;-42
2021/01/18 03:27:27;;;;;;;7.53;5.03;;;2.60;99.90;;;;;;5093142;28;20286;-43
2021/01/18 03:29:54;;;;;;;6.50;5.67;;;2.60;99.90;;;;;;5093071;28;20207;-43
2021/01/18 03:32:21;;;;;;;5.50;4.83;;;2.70;99.90;;;;;;5092826;28;20238;-44
2021/01/18 03:34:48;;;;;;;6.37;5.27;;;2.60;99.90;;;;;;5092965;28;20207;-43
2021/01/18 03:37:15;;;;;;;5.88;5.22;;;2.60;99.90;;;;;;5092939;28;20206;-42
2021/01/18 03:39:43;;;;;;;6.30;5.70;;;2.60;99.90;;;;;;5092884;28;20340;-43
2021/01/18 03:42:11;;;;;;;6.23;5.03;;;2.60;99.90;;;;;;5092973;28;20214;-42
2021/01/18 03:44:38;;;;;;;5.97;5.03;;;2.60;99.90;;;;;;5092986;28;20219;-42
2021/01/18 03:47:07;;;;;;;6.27;5.63;;;2.60;99.90;;;;;;5092596;28;20257;-41
2021/01/18 03:49:34;;;;;;;6.83;5.50;;;2.60;99.90;;;;;;5092721;28;20290;-42
2021/01/18 03:52:01;;;;;;;8.40;5.73;;;2.60;99.90;;;;;;5092521;28;20214;-42
2021/01/18 03:54:28;;;;;;;8.30;4.93;;;2.60;99.90;;;;;;5092699;28;20285;-42
2021/01/18 03:56:56;;;;;;;6.33;5.33;;;2.60;99.90;;;;;;5092578;28;20215;-42
2021/01/18 03:59:23;;;;;;;9.10;5.87;;;2.60;99.90;;;;;;5092199;28;20325;-43
2021/01/18 04:01:50;;;;;;;6.50;5.30;;;2.60;99.90;;;;;;5092615;28;20250;-43
2021/01/18 04:04:17;;;;;;;6.80;5.87;;;2.60;99.90;;;;;;5092745;28;20207;-43
2021/01/18 04:06:44;;;;;;;6.60;5.20;;;2.60;99.90;;;;;;5092282;28;20686;-42
2021/01/18 04:09:11;;;;;;;6.30;5.50;;;2.60;99.90;;;;;;5092465;28;20199;-44
2021/01/18 04:11:38;;;;;;;8.60;5.67;;;2.60;99.90;;;;;;5092078;28;20206;-42
2021/01/18 04:14:06;;;;;;;9.13;5.80;;;2.60;99.90;;;;;;5092097;28;20214;-43
2021/01/18 04:16:40;;;;;;;9.90;6.73;;;2.60;99.90;;;;;;5092241;28;20696;-42
2021/01/18 04:19:07;;;;;;;8.30;5.87;;;2.60;99.90;;;;;;5092271;28;20238;-42
2021/01/18 04:21:37;;;;;;;8.93;6.40;;;2.60;99.90;;;;;;5092238;28;20305;-43
2021/01/18 04:24:05;;;;;;;6.07;5.37;;;2.60;99.90;;;;;;5092133;28;20728;-42
2021/01/18 04:26:32;;;;;;;9.03;6.27;;;2.60;99.90;;;;;;5092106;28;20321;-43
2021/01/18 04:28:59;;;;;;;8.30;6.53;;;2.60;99.90;;;;;;5092238;28;20253;-42
2021/01/18 04:31:27;;;;;;;7.83;6.23;;;2.60;99.90;;;;;;5092019;28;20293;-43
2021/01/18 04:33:54;;;;;;;9.53;8.03;;;2.70;99.90;;;;;;5092154;28;20207;-42
2021/01/18 04:36:21;;;;;;;8.20;6.30;;;2.70;99.90;;;;;;5091974;28;20319;-43
2021/01/18 04:38:48;;;;;;;8.90;6.53;;;2.80;99.90;;;;;;5092018;28;20258;-43
2021/01/18 04:41:15;;;;;;;9.37;6.20;;;2.80;99.90;;;;;;5091862;28;20516;-42
2021/01/18 04:43:45;;;;;;;10.50;7.83;;;2.80;99.90;;;;;;5092182;28;20206;-42
2021/01/18 04:46:17;;;;;;;8.13;6.73;;;2.80;99.90;;;;;;5091826;28;20242;-42
2021/01/18 04:48:45;;;;;;;6.97;6.27;;;2.90;99.90;;;;;;5091906;28;20198;-43
2021/01/18 04:51:15;;;;;;;8.00;7.00;;;2.80;99.90;;;;;;5091924;28;20211;-43
2021/01/18 04:53:49;;;;;;;7.27;6.30;;;2.80;99.90;;;;;;5091824;28;20214;-44
2021/01/18 04:56:36;;;;;;;10.68;6.75;;;2.90;99.90;;;;;;5091912;28;20234;-43
2021/01/18 04:59:16;;;;;;;6.60;6.00;;;2.80;99.90;;;;;;5092042;28;20241;-43
2021/01/18 05:01:46;;;;;;;8.10;6.87;;;2.80;99.90;;;;;;5091906;28;20226;-43
2021/01/18 05:04:29;;;;;;;10.33;6.87;;;2.70;99.90;;;;;;5091628;28;20221;-43
2021/01/18 05:06:59;;;;;;;7.22;5.75;;;2.70;99.90;;;;;;5091786;28;20622;-44
2021/01/18 05:09:29;;;;;;;7.83;7.03;;;2.70;99.90;;;;;;5092013;28;20245;-43
2021/01/18 05:11:58;;;;;;;7.23;5.97;;;2.70;99.90;;;;;;5092032;28;20248;-43
2021/01/18 05:14:26;;;;;;;11.07;7.70;;;2.60;99.90;;;;;;5095661;28;20234;-45
2021/01/18 05:16:56;;;;;;;11.38;8.02;;;2.60;99.90;;;;;;5095601;28;20218;-41
2021/01/18 05:19:26;;;;;;;7.70;6.90;;;2.60;99.90;;;;;;5095803;28;20238;-44
2021/01/18 05:21:54;;;;;;;8.50;6.93;;;2.60;99.90;;;;;;5095562;28;20240;-40
2021/01/18 05:24:22;;;;;;;8.30;6.63;;;2.60;99.90;;;;;;5095401;28;20646;-43
2021/01/18 05:27:03;;;;;;;9.87;7.00;;;2.60;99.90;;;;;;5095363;28;20293;-43
2021/01/18 05:29:34;;;;;;;10.50;6.72;;;2.60;99.90;;;;;;5095116;28;20290;-42
2021/01/18 05:32:02;;;;;;;10.27;6.80;;;2.60;99.90;;;;;;5095633;28;20281;-42
2021/01/18 05:34:31;;;;;;;7.57;6.53;;;2.60;99.90;;;;;;5095278;28;20296;-42
2021/01/18 05:36:58;;;;;;;9.40;6.67;;;2.60;99.90;;;;;;5095259;28;20264;-43
2021/01/18 05:39:33;;;;;;;8.67;7.00;;;2.60;99.90;;;;;;5095122;28;20299;-50
2021/01/18 05:42:01;;;;;;;8.90;7.00;;;2.60;99.90;;;;;;5095579;28;20704;-48
2021/01/18 05:44:33;;;;;;;9.90;7.73;;;2.60;99.90;;;;;;5095852;28;20305;-41
2021/01/18 05:47:02;;;;;;;8.98;7.63;;;2.60;99.90;;;;;;5095189;28;20203;-43
2021/01/18 05:49:41;;;;;;;10.30;6.97;;;2.60;99.90;;;;;;5095092;28;20207;-42
2021/01/18 05:52:24;;;;;;;10.13;7.60;;;2.60;99.90;;;;;;5095159;28;20309;-45
2021/01/18 05:55:10;;;;;;;6.93;6.23;;;2.60;99.90;;;;;;5095320;28;20291;-42
2021/01/18 05:57:38;;;;;;;10.10;7.43;;;2.60;99.90;;;;;;5094877;28;20217;-42
2021/01/18 06:00:06;;;;;;;7.27;6.43;;;2.60;99.90;;;;;;5094875;28;20249;-44
2021/01/18 06:02:33;;;;;;;11.60;7.40;;;2.60;99.90;;;;;;5094914;28;20709;-46
2021/01/18 06:05:07;;;;;;;8.93;7.87;;;2.50;99.90;;;;;;5094759;28;20732;-43
2021/01/18 06:07:35;;;;;;;7.93;6.97;;;2.50;99.90;;;;;;5094874;28;20268;-42
2021/01/18 06:10:02;;;;;;;8.50;7.27;;;2.50;99.90;;;;;;5094734;28;20622;-43
2021/01/18 06:12:31;;;;;;;9.43;7.00;;;2.50;99.90;;;;;;5094595;28;20260;-44
2021/01/18 06:15:09;;;;;;;8.73;7.47;;;2.50;99.90;;;;;;5094573;28;20253;-45
2021/01/18 06:17:38;;;;;;;11.18;8.23;;;2.50;99.90;;;;;;5094682;28;20207;-47
2021/01/18 06:20:07;;;;;;;8.52;6.65;;;2.50;99.90;;;;;;5094362;28;20611;-44
2021/01/18 06:22:34;;;;;;;11.25;7.70;;;2.50;99.90;;;;;;5094564;28;20289;-41
2021/01/18 06:25:12;;;;;;;8.73;7.07;;;2.60;99.90;;;;;;5093359;28;20246;-42
2021/01/18 06:27:40;;;;;;;9.60;7.28;;;2.60;99.90;;;;;;5094526;28;20218;-45
2021/01/18 06:30:24;;;;;;;8.45;7.25;;;2.60;99.90;;;;;;5094632;28;20240;-47
2021/01/18 06:32:53;;;;;;;10.30;7.70;;;2.60;99.90;;;;;;5094420;28;20230;-49
2021/01/18 06:35:26;;;;;;;7.43;6.70;;;2.70;99.90;;;;;;5094295;28;20299;-44
2021/01/18 06:37:58;;;;;;;8.03;6.77;;;2.70;99.90;;;;;;5094072;28;20206;-49
2021/01/18 06:40:30;;;;;;;9.53;7.87;;;2.70;99.90;;;;;;5094042;28;20330;-45
2021/01/18 06:42:58;;;;;;;9.68;7.25;;;2.70;99.90;;;;;;5094255;28;20207;-46
2021/01/18 06:45:31;;;;;;;7.10;6.22;;;2.70;99.90;;;;;;5094015;28;20243;-42
2021/01/18 06:47:59;;;;;;;9.37;7.77;;;2.60;99.90;;;;;;5093944;28;20755;-45
2021/01/18 06:50:33;;;;;;;11.60;8.00;;;2.60;99.90;;;;;;5093588;28;20294;-43
2021/01/18 06:53:22;;;;;;;8.02;7.15;;;2.60;99.90;;;;;;5094263;28;20264;-43
2021/01/18 06:56:29;;;;;;;8.90;8.00;;;2.60;99.90;;;;;;5093808;28;20202;-42
2021/01/18 06:59:02;;;;;;;10.13;7.43;;;2.60;99.90;;;;;;5093445;28;20317;-45
2021/01/18 07:01:32;;;;;;;9.53;7.60;;;2.60;99.90;;;;;;5093900;28;20263;-46
2021/01/18 07:04:05;;;;;;;9.13;6.50;;;2.60;99.90;;;;;;5093636;28;20203;-45
2021/01/18 07:06:36;;;;;;;8.13;6.80;;;2.70;99.90;;;;;;5093888;28;20217;-42
2021/01/18 07:09:05;;;;;;;7.75;6.55;;;2.60;99.90;;;;;;5093488;28;20242;-48
2021/01/18 07:12:00;;;;;;;10.03;7.73;;;2.60;99.90;;;;;;5093456;28;20213;-44
2021/01/18 07:14:30;;;;;;;7.85;6.65;;;2.70;99.90;;;;;;5093464;28;20247;-47
2021/01/18 07:17:03;;;;;;;8.77;7.13;;;2.70;99.90;;;;;;5093722;28;20249;-44
2021/01/18 07:19:36;;;;;;;8.73;6.60;;;2.70;99.90;;;;;;5093283;28;20222;-43
2021/01/18 07:22:28;;;;;;;9.37;6.80;;;2.70;99.90;;;;;;5093573;28;20217;-42
2021/01/18 07:25:06;;;;;;;8.47;6.63;;;2.70;99.90;;;;;;5093465;28;20299;-42
2021/01/18 07:27:40;;;;;;;8.00;6.60;;;2.70;99.90;;;;;;5093161;28;20211;-44
2021/01/18 07:30:09;;;;;;;8.80;6.27;;;2.80;99.90;;;;;;5093153;28;20208;-43
2021/01/18 07:32:36;;;;;;;9.93;6.85;;;2.80;99.90;;;;;;5093224;28;20232;-44
2021/01/18 07:35:04;;;;;;;8.73;6.67;;;2.80;99.90;;;;;;5092788;28;20246;-46
2021/01/18 07:37:32;;;;;;;10.90;7.13;;;2.80;99.90;;;;;;5093218;28;20307;-47
2021/01/18 07:40:09;;;;;;;10.47;6.73;;;2.90;99.90;;;;;;5093001;28;20596;-46
2021/01/18 07:42:41;;;;;;;7.23;6.53;;;2.90;99.90;;;;;;5092939;28;20297;-46
2021/01/18 07:45:13;;;;;;;8.63;6.43;;;2.90;99.90;;;;;;5092863;28;20249;-46
2021/01/18 07:48:06;;;;;;;8.67;6.70;;;2.90;99.90;;;;;;5093038;28;20207;-43
2021/01/18 07:50:36;;;;;;;7.90;6.90;;;2.90;99.90;;;;;;5093159;28;20692;-44
2021/01/18 07:53:06;;;;;;;8.03;6.20;;;3.00;99.90;;;;;;5092964;28;20520;-47
2021/01/18 07:55:33;;;;;;;8.47;6.17;;;3.00;99.90;;;;;;5092933;28;20764;-44
2021/01/18 07:58:15;;;;;;;7.10;6.07;;;3.00;99.90;;;;;;5092523;28;20249;-45
2021/01/18 08:00:43;;;;;;;8.10;6.47;;;3.00;99.90;;;;;;5092755;28;20214;-45
2021/01/18 08:03:25;;;;;;;8.90;6.60;;;3.00;99.90;;;;;;5092466;28;20207;-42
2021/01/18 08:06:07;;;;;;;9.07;6.33;;;3.10;99.90;;;;;;5092762;28;20255;-41
2021/01/18 08:08:36;;;;;;;6.03;5.37;;;3.10;99.90;;;;;;5092452;28;20289;-42
2021/01/18 08:11:06;;;;;;;9.40;5.83;;;3.10;99.90;;;;;;5092581;28;20207;-43
2021/01/18 08:13:54;;;;;;;9.03;5.87;;;3.10;99.90;;;;;;5092173;28;20292;-43
2021/01/18 08:16:23;;;;;;;7.17;5.43;;;3.10;99.90;;;;;;5092519;28;20297;-43
2021/01/18 08:19:09;;;;;;;7.57;6.27;;;3.10;99.90;;;;;;5092246;28;20226;-45
2021/01/18 08:21:45;;;;;;;6.30;5.57;;;3.10;99.90;;;;;;5092413;28;20328;-45
2021/01/18 08:24:51;;;;;;;8.77;6.33;;;3.20;99.90;;;;;;5092162;28;20210;-45
2021/01/18 08:27:50;;;;;;;9.07;6.33;;;3.20;99.90;;;;;;5092576;28;20198;-47
2021/01/18 08:30:27;;;;;;;8.83;6.40;;;3.30;99.90;;;;;;5092083;28;20238;-50
2021/01/18 08:32:56;;;;;;;7.53;5.63;;;3.30;99.90;;;;;;5092444;28;20638;-50
2021/01/18 08:35:29;;;;;;;6.17;5.40;;;3.40;99.90;;;;;;5092176;28;20271;-47
2021/01/18 08:38:04;;;;;;;10.10;6.03;;;3.40;99.90;;;;;;5092104;28;20285;-49
2021/01/18 08:40:41;;;;;;;7.22;5.85;;;3.50;99.90;;;;;;5092106;28;20210;-50
2021/01/18 08:43:09;;;;;;;7.47;5.50;;;3.50;99.90;;;;;;5092242;28;20213;-47
2021/01/18 08:45:39;;;;;;;7.97;5.97;;;3.50;99.90;;;;;;5092195;28;20206;-45
2021/01/18 08:48:07;;;;;;;7.57;5.70;;;3.50;99.90;;;;;;5091144;28;20206;-46
2021/01/18 08:50:44;;;;;;;7.80;5.93;;;3.50;99.90;;;;;;5091921;28;20297;-45
2021/01/18 08:53:30;;;;;;;8.70;7.70;;;3.50;99.90;;;;;;5092097;28;20211;-44
2021/01/18 08:56:03;;;;;;;5.90;5.33;;;3.50;99.90;;;;;;5091877;28;20260;-44
2021/01/18 08:58:33;;;;;;;6.13;5.30;;;3.50;99.90;;;;;;5091876;28;20873;-42
2021/01/18 09:01:00;;;;;;;9.23;5.40;;;3.50;99.90;;;;;;5091928;28;20203;-43
2021/01/18 09:03:28;;;;;;;13.63;5.97;;;3.50;99.90;;;;;;5091898;28;20668;-43
2021/01/18 09:05:56;;;;;;;8.80;5.80;;;3.50;99.90;;;;;;5092158;28;20375;-43
2021/01/18 09:08:25;;;;;;;8.67;5.70;;;3.50;99.90;;;;;;5092030;28;20613;-45
2021/01/18 09:10:56;;;;;;;7.80;5.47;;;3.50;99.90;;;;;;5091690;28;20206;-43
2021/01/18 09:13:25;;;;;;;9.80;6.00;;;3.50;99.90;;;;;;5091548;28;20238;-43
2021/01/18 09:15:54;;;;;;;8.57;7.60;;;3.50;99.90;;;;;;5091761;28;20293;-42
2021/01/18 09:18:25;;;;;;;5.87;4.43;;;3.50;99.90;;;;;;5091552;28;20203;-42
2021/01/18 09:20:53;;;;;;;8.53;5.73;;;3.50;99.90;;;;;;5092193;28;20261;-42
2021/01/18 09:23:20;;;;;;;5.60;5.00;;;3.40;99.90;;;;;;5091684;28;20209;-42
2021/01/18 09:26:01;;;;;;;7.93;5.90;;;3.40;99.90;;;;;;5091785;28;20290;-42
2021/01/18 09:28:30;;;;;;;9.13;5.40;;;3.40;99.90;;;;;;5091547;28;20203;-42
2021/01/18 09:31:05;;;;;;;9.53;6.60;;;3.50;99.90;;;;;;5091500;28;20264;-43
2021/01/18 09:33:34;;;;;;;8.23;5.73;;;3.50;99.90;;;;;;5091936;28;20251;-42
2021/01/18 09:36:01;;;;;;;9.10;5.80;;;3.50;99.90;;;;;;5091588;28;20278;-40
2021/01/18 09:38:28;;;;;;;7.72;5.43;;;3.50;99.90;;;;;;5091407;28;20715;-42
2021/01/18 09:40:56;;;;;;;9.27;5.28;;;3.50;99.90;;;;;;5091542;28;20301;-41
2021/01/18 09:43:22;;;;;;;10.27;5.40;;;3.50;99.90;;;;;;5091433;28;20257;-41
2021/01/18 09:45:55;;;;;;;7.73;5.23;;;3.60;99.90;;;;;;5091610;28;20206;-41
2021/01/18 09:48:25;;;;;;;11.00;5.60;;;3.60;99.90;;;;;;5091507;28;20211;-44
2021/01/18 09:51:03;;;;;;;7.45;5.55;;;3.60;99.90;;;;;;5091598;28;20219;-49
2021/01/18 09:53:31;;;;;;;8.20;7.00;;;3.60;99.90;;;;;;5091362;28;20211;-47
2021/01/18 09:56:01;;;;;;;8.80;6.27;;;3.70;99.90;;;;;;5091356;28;20207;-45
2021/01/18 09:58:40;;;;;;;8.33;5.37;;;3.80;99.90;;;;;;5092253;28;20746;-44
2021/01/18 10:01:11;;;;;;;9.48;6.70;;;3.90;99.90;;;;;;5094834;28;20207;-45
2021/01/18 10:03:40;;;;;;;8.65;5.47;;;4.00;99.90;;;;;;5094778;28;20229;-46
2021/01/18 10:06:09;;;;;;;9.83;6.23;;;4.00;99.90;;;;;;5094901;28;20294;-44
2021/01/18 10:08:40;;;;;;;10.63;5.33;;;4.10;99.90;;;;;;5094976;28;20259;-47
2021/01/18 10:11:07;;;;;;;7.83;5.90;;;4.10;99.90;;;;;;5094839;28;20234;-47
2021/01/18 10:13:36;;;;;;;6.53;5.43;;;4.10;99.90;;;;;;5094494;28;20291;-43
2021/01/18 10:16:09;;;;;;;7.70;5.57;;;4.30;99.90;;;;;;5094674;28;20590;-45
2021/01/18 10:18:39;;;;;;;7.32;5.22;;;4.30;99.90;;;;;;5094324;28;20262;-48
2021/01/18 10:21:08;;;;;;;7.90;6.00;;;4.40;99.90;;;;;;5094552;28;20280;-44
2021/01/18 10:23:37;;;;;;;7.87;4.93;;;4.40;99.90;;;;;;5094544;28;20214;-44
2021/01/18 10:26:19;;;;;;;8.73;6.47;;;4.50;99.90;;;;;;5094490;28;20310;-47
2021/01/18 10:28:52;;;;;;;7.00;5.43;;;4.50;99.90;;;;;;5094255;28;20286;-44
2021/01/18 10:31:20;;;;;;;6.38;5.15;;;4.50;99.90;;;;;;5094357;28;20241;-44
2021/01/18 10:34:15;;;;;;;7.78;6.00;;;4.40;99.90;;;;;;5094503;28;20571;-44
2021/01/18 10:36:43;;;;;;;8.63;5.95;;;4.40;99.90;;;;;;5094411;28;20257;-41
2021/01/18 10:39:28;;;;;;;7.03;5.20;;;4.50;99.90;;;;;;5094265;28;20229;-42
2021/01/18 10:42:08;;;;;;;6.37;5.73;;;4.50;99.90;;;;;;5094274;28;20214;-41
2021/01/18 10:44:37;;;;;;;6.60;5.87;;;4.60;99.90;;;;;;5093943;28;20207;-41
2021/01/18 10:47:05;;;;;;;6.70;5.47;;;4.80;99.90;;;;;;5094142;28;20254;-43
2021/01/18 10:49:34;;;;;;;7.30;5.72;;;4.90;99.90;;;;;;5093996;28;20199;-40
2021/01/18 10:52:06;;;;;;;7.97;5.83;;;4.90;99.90;;;;;;5093784;28;20301;-42
2021/01/18 10:54:34;;;;;;;5.30;4.78;;;4.90;99.90;;;;;;5094343;28;20245;-42
2021/01/18 10:57:02;;;;;;;8.30;6.27;;;4.90;99.90;;;;;;5093973;28;20210;-41
2021/01/18 10:59:30;;;;;;;10.53;5.47;;;4.90;99.90;;;;;;5093850;28;20233;-42
2021/01/18 11:02:02;;;;;;;6.70;4.67;;;4.80;99.90;;;;;;5093783;28;20210;-42
2021/01/18 11:04:33;;;;;;;7.63;5.20;;;4.70;99.90;;;;;;5093632;28;20260;-41
2021/01/18 11:07:00;;;;;;;8.27;5.93;;;4.70;99.90;;;;;;5093755;28;20301;-41
2021/01/18 11:09:32;;;;;;;6.97;5.73;;;4.60;99.90;;;;;;5093500;28;20203;-42
2021/01/18 11:12:00;;;;;;;15.18;8.40;;;4.60;99.90;;;;;;5093212;28;20645;-41
2021/01/18 11:14:27;;;;;;;6.32;5.38;;;4.60;99.90;;;;;;5093585;28;20210;-42
2021/01/18 11:16:59;;;;;;;8.27;6.00;;;4.60;99.90;;;;;;5093403;28;20582;-43
2021/01/18 11:19:27;;;;;;;9.43;6.00;;;4.70;99.90;;;;;;5093568;28;20656;-41
2021/01/18 11:21:55;;;;;;;8.50;5.30;;;4.70;99.90;;;;;;5093519;28;20238;-41
2021/01/18 11:24:22;;;;;;;8.17;5.67;;;4.70;99.90;;;;;;5093311;28;20760;-40
2021/01/18 11:26:51;;;;;;;7.63;5.30;;;4.60;99.90;;;;;;5093385;28;20257;-44
2021/01/18 11:29:18;;;;;;;11.00;6.90;;;4.60;99.90;;;;;;5093232;28;20294;-45
2021/01/18 11:31:46;;;;;;;6.47;4.90;;;4.60;99.90;;;;;;5093259;28;20234;-43
2021/01/18 11:34:14;;;;;;;9.90;8.90;;;4.70;99.90;;;;;;5093385;28;20202;-41
2021/01/18 11:36:42;;;;;;;7.50;5.47;;;4.90;99.90;;;;;;5093129;28;20618;-42
2021/01/18 11:39:10;;;;;;;10.33;8.53;;;5.00;99.90;;;;;;5093024;28;20223;-42
2021/01/18 11:41:38;;;;;;;7.27;5.03;;;5.00;99.90;;;;;;5092944;28;20203;-42
2021/01/18 11:44:06;;;;;;;9.40;6.07;;;5.10;99.90;;;;;;5092973;28;20298;-44
2021/01/18 11:46:34;;;;;;;7.30;6.37;;;5.10;99.90;;;;;;5092880;28;20246;-41
2021/01/18 11:49:02;;;;;;;7.90;5.70;;;5.20;99.90;;;;;;5092650;28;20205;-42
2021/01/18 11:51:30;;;;;;;6.07;4.72;;;5.30;99.90;;;;;;5092693;28;20653;-42
2021/01/18 11:53:57;;;;;;;7.37;6.03;;;5.40;99.90;;;;;;5092917;28;20242;-41
2021/01/18 11:56:31;;;;;;;8.70;5.53;;;5.40;99.90;;;;;;5092194;28;20302;-42
2021/01/18 11:58:59;;;;;;;6.37;5.10;;;5.60;99.90;;;;;;5092105;28;20313;-45
2021/01/18 12:01:26;;;;;;;9.13;6.40;;;5.50;99.90;;;;;;5092396;28;20296;-44
2021/01/18 12:03:53;;;;;;;6.77;5.47;;;5.50;99.90;;;;;;5092268;28;20210;-47
2021/01/18 12:06:21;;;;;;;6.47;5.03;;;5.50;99.90;;;;;;5092525;28;20214;-45
2021/01/18 12:08:49;;;;;;;7.00;5.20;;;5.50;99.90;;;;;;5092565;28;20331;-43
2021/01/18 12:11:16;;;;;;;6.40;5.40;;;5.50;99.90;;;;;;5092270;28;20240;-44
2021/01/18 12:13:44;;;;;;;5.40;4.53;;;5.50;99.90;;;;;;5092046;28;20326;-48
2021/01/18 12:16:11;;;;;;;7.07;5.10;;;5.50;99.90;;;;;;5092303;28;20238;-45
2021/01/18 12:18:39;;;;;;;5.90;5.33;;;5.40;99.90;;;;;;5091975;28;20232;-47
2021/01/18 12:21:06;;;;;;;10.67;5.33;;;5.30;99.90;;;;;;5091786;28;20576;-47
2021/01/18 12:23:33;;;;;;;5.90;4.60;;;5.30;99.90;;;;;;5091221;28;20298;-50
2021/01/18 12:26:00;;;;;;;5.67;4.63;;;5.20;99.90;;;;;;5092304;28;20207;-46
2021/01/18 12:28:28;;;;;;;6.43;5.23;;;5.20;99.90;;;;;;5092302;28;20276;-44
2021/01/18 12:30:56;;;;;;;7.35;5.35;;;5.20;99.90;;;;;;5092315;28;20374;-48
2021/01/18 12:33:23;;;;;;;9.17;4.97;;;5.10;99.90;;;;;;5092204;28;20289;-48
2021/01/18 12:35:51;;;;;;;6.17;5.43;;;5.10;99.90;;;;;;5092105;28;20217;-46
2021/01/18 12:38:18;;;;;;;6.30;5.60;;;5.00;99.90;;;;;;5092100;28;20410;-49
2021/01/18 12:40:45;;;;;;;7.33;5.63;;;5.00;99.90;;;;;;5091845;28;20334;-44
2021/01/18 12:43:16;;;;;;;6.10;5.27;;;4.90;99.90;;;;;;5092199;28;20306;-45
2021/01/18 12:45:44;;;;;;;6.38;5.18;;;4.80;99.90;;;;;;5092245;28;20289;-45
2021/01/18 12:48:12;;;;;;;7.07;5.10;;;4.70;99.90;;;;;;5091970;28;20711;-47
2021/01/18 12:50:40;;;;;;;7.80;5.95;;;4.60;99.90;;;;;;5091925;28;20264;-44
2021/01/18 12:53:08;;;;;;;7.27;5.13;;;4.60;99.90;;;;;;5092090;28;20271;-44
2021/01/18 12:55:35;;;;;;;5.57;4.43;;;4.60;99.90;;;;;;5092110;28;20285;-46
2021/01/18 12:58:03;;;;;;;5.87;5.27;;;4.50;99.90;;;;;;5091948;28;20252;-45
2021/01/18 13:00:30;;;;;;;7.20;5.93;;;4.50;99.90;;;;;;5091859;28;20696;-45
2021/01/18 13:02:57;;;;;;;10.27;6.23;;;4.50;99.90;;;;;;5091810;28;20240;-48
2021/01/18 13:05:25;;;;;;;7.63;6.43;;;4.50;99.90;;;;;;5091744;28;20221;-51
2021/01/18 13:08:11;;;;;;;8.27;6.30;;;4.60;99.90;;;;;;5091973;28;20207;-46
2021/01/18 13:10:39;;;;;;;8.53;6.33;;;4.60;99.90;;;;;;5091797;28;20290;-48
2021/01/18 13:13:06;;;;;;;9.02;6.57;;;4.60;99.90;;;;;;5091657;28;20235;-46
2021/01/18 13:15:34;;;;;;;7.23;5.83;;;4.60;99.90;;;;;;5091941;28;20206;-51
2021/01/18 13:18:02;;;;;;;7.65;5.30;;;4.60;99.90;;;;;;5091606;28;20277;-49